sensor_id;sensor_type;location;lat;lon;timestamp;pressure;altitude;pressure_sealevel;temperature;humidity
15272;BME280;7737;51.578;7.268;2023-07-16T00:02:01;100373.03;;;19.60;100.00
15272;BME280;7737;51.578;7.268;2023-07-16T00:04:27;100365.94;;;19.59;100.00
15272;BME280;7737;51.578;7.268;2023-07-16T00:06:54;100369.34;;;19.61;100.00
15272;BME280;7737;51.578;7.268;2023-07-16T00:09:22;100376.16;;;19.65;100.00
15272;BME280;7737;51.578;7.268;2023-07-16T00:11:49;100377.44;;;19.61;100.00
15272;BME280;7737;51.578;7.268;2023-07-16T00:14:15;100373.75;;;19.62;100.00
15272;BME280;7737;51.578;7.268;2023-07-16T00:16:42;100375.31;;;19.55;100.00
15272;BME280;7737;51.578;7.268;2023-07-16T00:19:10;100390.09;;;19.51;100.00
15272;BME280;7737;51.578;7.268;2023-07-16T00:21:36;100379.88;;;19.64;100.00
15272;BME280;7737;51.578;7.268;2023-07-16T00:24:04;100387.22;;;19.62;100.00
15272;BME280;7737;51.578;7.268;2023-07-16T00:26:32;100388.34;;;19.60;100.00
15272;BME280;7737;51.578;7.268;2023-07-16T00:28:58;100385.25;;;19.64;100.00
15272;BME280;7737;51.578;7.268;2023-07-16T00:31:25;100379.72;;;19.56;100.00
15272;BME280;7737;51.578;7.268;2023-07-16T00:33:51;100386.09;;;19.55;100.00
15272;BME280;7737;51.578;7.268;2023-07-16T00:36:18;100385.94;;;19.57;100.00
15272;BME280;7737;51.578;7.268;2023-07-16T00:38:44;100391.75;;;19.52;100.00
15272;BME280;7737;51.578;7.268;2023-07-16T00:41:12;100399.69;;;19.44;100.00
15272;BME280;7737;51.578;7.268;2023-07-16T00:43:40;100414.19;;;19.43;100.00
15272;BME280;7737;51.578;7.268;2023-07-16T00:46:07;100416.69;;;19.35;100.00
15272;BME280;7737;51.578;7.268;2023-07-16T00:48:33;100407.38;;;19.39;100.00
15272;BME280;7737;51.578;7.268;2023-07-16T00:51:01;100417.16;;;19.40;100.00
15272;BME280;7737;51.578;7.268;2023-07-16T00:53:28;100424.22;;;19.31;100.00
15272;BME280;7737;51.578;7.268;2023-07-16T00:55:55;100428.94;;;19.39;100.00
15272;BME280;7737;51.578;7.268;2023-07-16T00:58:21;100424.69;;;19.46;100.00
15272;BME280;7737;51.578;7.268;2023-07-16T01:00:49;100416.16;;;19.41;100.00
15272;BME280;7737;51.578;7.268;2023-07-16T01:03:16;100416.81;;;19.33;100.00
15272;BME280;7737;51.578;7.268;2023-07-16T01:05:47;100429.44;;;19.33;100.00
15272;BME280;7737;51.578;7.268;2023-07-16T01:08:17;100438.22;;;19.25;100.00
15272;BME280;7737;51.578;7.268;2023-07-16T01:10:46;100433.97;;;19.23;100.00
15272;BME280;7737;51.578;7.268;2023-07-16T01:13:14;100417.53;;;19.26;100.00
15272;BME280;7737;51.578;7.268;2023-07-16T01:15:41;100408.72;;;19.24;100.00
15272;BME280;7737;51.578;7.268;2023-07-16T01:18:09;100410.13;;;19.28;100.00
15272;BME280;7737;51.578;7.268;2023-07-16T01:20:35;100416.06;;;19.12;100.00
15272;BME280;7737;51.578;7.268;2023-07-16T01:23:24;100425.09;;;19.02;100.00
15272;BME280;7737;51.578;7.268;2023-07-16T01:26:06;100432.34;;;19.01;100.00
15272;BME280;7737;51.578;7.268;2023-07-16T01:29:05;100436.41;;;18.96;100.00
15272;BME280;7737;51.578;7.268;2023-07-16T01:31:33;100440.13;;;18.95;100.00
15272;BME280;7737;51.578;7.268;2023-07-16T01:34:00;100441.81;;;18.96;100.00
15272;BME280;7737;51.578;7.268;2023-07-16T01:36:31;100437.25;;;18.87;100.00
15272;BME280;7737;51.578;7.268;2023-07-16T01:38:59;100437.22;;;18.77;100.00
15272;BME280;7737;51.578;7.268;2023-07-16T01:41:26;100443.19;;;18.80;100.00
15272;BME280;7737;51.578;7.268;2023-07-16T01:43:53;100446.00;;;18.79;100.00
15272;BME280;7737;51.578;7.268;2023-07-16T01:46:21;100448.81;;;18.77;100.00
15272;BME280;7737;51.578;7.268;2023-07-16T01:48:47;100445.88;;;18.80;100.00
15272;BME280;7737;51.578;7.268;2023-07-16T01:51:14;100450.38;;;18.70;100.00
15272;BME280;7737;51.578;7.268;2023-07-16T01:53:40;100456.47;;;18.72;100.00
15272;BME280;7737;51.578;7.268;2023-07-16T01:56:07;100457.53;;;18.60;100.00
15272;BME280;7737;51.578;7.268;2023-07-16T01:58:33;100451.63;;;18.66;100.00
15272;BME280;7737;51.578;7.268;2023-07-16T02:01:00;100463.19;;;18.57;100.00
15272;BME280;7737;51.578;7.268;2023-07-16T02:03:28;100465.88;;;18.57;100.00
15272;BME280;7737;51.578;7.268;2023-07-16T02:05:54;100473.38;;;18.54;100.00
15272;BME280;7737;51.578;7.268;2023-07-16T02:08:21;100478.44;;;18.47;100.00
15272;BME280;7737;51.578;7.268;2023-07-16T02:10:48;100482.56;;;18.51;100.00
15272;BME280;7737;51.578;7.268;2023-07-16T02:13:15;100485.25;;;18.51;100.00
15272;BME280;7737;51.578;7.268;2023-07-16T02:15:42;100496.28;;;18.48;100.00
15272;BME280;7737;51.578;7.268;2023-07-16T02:18:10;100488.03;;;18.61;100.00
15272;BME280;7737;51.578;7.268;2023-07-16T02:20:38;100490.13;;;18.57;100.00
15272;BME280;7737;51.578;7.268;2023-07-16T02:23:05;100492.94;;;18.56;100.00
15272;BME280;7737;51.578;7.268;2023-07-16T02:25:31;100492.63;;;18.49;100.00
15272;BME280;7737;51.578;7.268;2023-07-16T02:27:58;100494.78;;;18.55;100.00
15272;BME280;7737;51.578;7.268;2023-07-16T02:30:25;100498.59;;;18.53;100.00
15272;BME280;7737;51.578;7.268;2023-07-16T02:32:51;100496.03;;;18.51;100.00
15272;BME280;7737;51.578;7.268;2023-07-16T02:35:18;100498.44;;;18.54;100.00
15272;BME280;7737;51.578;7.268;2023-07-16T02:37:46;100491.28;;;18.64;100.00
15272;BME280;7737;51.578;7.268;2023-07-16T02:40:12;100497.06;;;18.60;100.00
15272;BME280;7737;51.578;7.268;2023-07-16T02:42:39;100490.78;;;18.50;100.00
15272;BME280;7737;51.578;7.268;2023-07-16T02:45:06;100499.16;;;18.56;100.00
15272;BME280;7737;51.578;7.268;2023-07-16T02:47:33;100490.38;;;18.54;100.00
15272;BME280;7737;51.578;7.268;2023-07-16T02:50:00;100502.66;;;18.47;100.00
15272;BME280;7737;51.578;7.268;2023-07-16T02:52:26;100503.88;;;18.43;100.00
15272;BME280;7737;51.578;7.268;2023-07-16T02:54:54;100508.38;;;18.43;100.00
15272;BME280;7737;51.578;7.268;2023-07-16T02:57:21;100510.59;;;18.49;100.00
15272;BME280;7737;51.578;7.268;2023-07-16T02:59:47;100505.34;;;18.47;100.00
15272;BME280;7737;51.578;7.268;2023-07-16T03:02:14;100509.22;;;18.54;100.00
15272;BME280;7737;51.578;7.268;2023-07-16T03:04:40;100501.75;;;18.58;100.00
15272;BME280;7737;51.578;7.268;2023-07-16T03:07:07;100503.16;;;18.62;100.00
15272;BME280;7737;51.578;7.268;2023-07-16T03:09:34;100508.50;;;18.52;100.00
15272;BME280;7737;51.578;7.268;2023-07-16T03:12:02;100509.41;;;18.62;100.00
15272;BME280;7737;51.578;7.268;2023-07-16T03:14:29;100514.75;;;18.53;100.00
15272;BME280;7737;51.578;7.268;2023-07-16T03:16:55;100501.84;;;18.56;100.00
15272;BME280;7737;51.578;7.268;2023-07-16T03:19:22;100512.72;;;18.66;100.00
15272;BME280;7737;51.578;7.268;2023-07-16T03:21:48;100515.00;;;18.70;100.00
15272;BME280;7737;51.578;7.268;2023-07-16T03:24:15;100517.88;;;18.78;100.00
15272;BME280;7737;51.578;7.268;2023-07-16T03:26:41;100508.94;;;18.78;100.00
15272;BME280;7737;51.578;7.268;2023-07-16T03:29:09;100513.19;;;18.80;100.00
15272;BME280;7737;51.578;7.268;2023-07-16T03:31:36;100508.81;;;18.79;100.00
15272;BME280;7737;51.578;7.268;2023-07-16T03:34:02;100505.13;;;18.80;100.00
15272;BME280;7737;51.578;7.268;2023-07-16T03:36:29;100501.88;;;18.77;100.00
15272;BME280;7737;51.578;7.268;2023-07-16T03:38:56;100506.13;;;18.79;100.00
15272;BME280;7737;51.578;7.268;2023-07-16T03:41:22;100508.53;;;18.82;100.00
15272;BME280;7737;51.578;7.268;2023-07-16T03:43:49;100515.91;;;18.80;100.00
15272;BME280;7737;51.578;7.268;2023-07-16T03:46:16;100515.44;;;18.75;100.00
15272;BME280;7737;51.578;7.268;2023-07-16T03:48:44;100523.41;;;18.77;100.00
15272;BME280;7737;51.578;7.268;2023-07-16T03:51:11;100534.38;;;18.64;100.00
15272;BME280;7737;51.578;7.268;2023-07-16T03:53:37;100536.34;;;18.62;100.00
15272;BME280;7737;51.578;7.268;2023-07-16T03:56:04;100532.78;;;18.62;100.00
15272;BME280;7737;51.578;7.268;2023-07-16T03:58:31;100536.50;;;18.61;100.00
15272;BME280;7737;51.578;7.268;2023-07-16T04:00:57;100535.88;;;18.57;100.00
15272;BME280;7737;51.578;7.268;2023-07-16T04:03:25;100536.16;;;18.54;100.00
15272;BME280;7737;51.578;7.268;2023-07-16T04:05:51;100538.84;;;18.54;100.00
15272;BME280;7737;51.578;7.268;2023-07-16T04:08:18;100533.72;;;18.51;100.00
15272;BME280;7737;51.578;7.268;2023-07-16T04:10:44;100542.31;;;18.45;100.00
15272;BME280;7737;51.578;7.268;2023-07-16T04:13:11;100546.47;;;18.49;100.00
15272;BME280;7737;51.578;7.268;2023-07-16T04:15:37;100542.81;;;18.39;100.00
15272;BME280;7737;51.578;7.268;2023-07-16T04:18:04;100546.72;;;18.35;100.00
15272;BME280;7737;51.578;7.268;2023-07-16T04:20:32;100544.44;;;18.31;100.00
15272;BME280;7737;51.578;7.268;2023-07-16T04:22:59;100554.81;;;18.35;100.00
15272;BME280;7737;51.578;7.268;2023-07-16T04:25:26;100552.50;;;18.31;100.00
15272;BME280;7737;51.578;7.268;2023-07-16T04:27:52;100559.22;;;18.36;100.00
15272;BME280;7737;51.578;7.268;2023-07-16T04:30:19;100551.53;;;18.32;100.00
15272;BME280;7737;51.578;7.268;2023-07-16T04:32:45;100558.41;;;18.24;100.00
15272;BME280;7737;51.578;7.268;2023-07-16T04:35:12;100566.09;;;18.29;100.00
15272;BME280;7737;51.578;7.268;2023-07-16T04:37:40;100557.28;;;18.27;100.00
15272;BME280;7737;51.578;7.268;2023-07-16T04:40:08;100564.63;;;18.25;100.00
15272;BME280;7737;51.578;7.268;2023-07-16T04:42:34;100559.00;;;18.28;100.00
15272;BME280;7737;51.578;7.268;2023-07-16T04:45:01;100570.75;;;18.27;100.00
15272;BME280;7737;51.578;7.268;2023-07-16T04:47:27;100572.59;;;18.27;100.00
15272;BME280;7737;51.578;7.268;2023-07-16T04:49:54;100575.00;;;18.30;100.00
15272;BME280;7737;51.578;7.268;2023-07-16T04:52:20;100575.38;;;18.36;100.00
15272;BME280;7737;51.578;7.268;2023-07-16T04:54:48;100576.59;;;18.32;100.00
15272;BME280;7737;51.578;7.268;2023-07-16T04:57:15;100587.09;;;18.35;100.00
15272;BME280;7737;51.578;7.268;2023-07-16T04:59:41;100575.09;;;18.39;100.00
15272;BME280;7737;51.578;7.268;2023-07-16T05:02:08;100571.41;;;18.40;100.00
15272;BME280;7737;51.578;7.268;2023-07-16T05:04:35;100573.38;;;18.38;100.00
15272;BME280;7737;51.578;7.268;2023-07-16T05:07:01;100580.00;;;18.45;100.00
15272;BME280;7737;51.578;7.268;2023-07-16T05:09:28;100582.69;;;18.45;100.00
15272;BME280;7737;51.578;7.268;2023-07-16T05:11:56;100581.59;;;18.48;100.00
15272;BME280;7737;51.578;7.268;2023-07-16T05:14:26;100586.34;;;18.44;100.00
15272;BME280;7737;51.578;7.268;2023-07-16T05:16:54;100594.28;;;18.46;100.00
15272;BME280;7737;51.578;7.268;2023-07-16T05:19:22;100580.94;;;18.55;100.00
15272;BME280;7737;51.578;7.268;2023-07-16T05:21:48;100589.28;;;18.52;100.00
15272;BME280;7737;51.578;7.268;2023-07-16T05:24:15;100590.44;;;18.59;100.00
15272;BME280;7737;51.578;7.268;2023-07-16T05:26:41;100587.91;;;18.58;100.00
15272;BME280;7737;51.578;7.268;2023-07-16T05:29:09;100596.84;;;18.58;100.00
15272;BME280;7737;51.578;7.268;2023-07-16T05:31:36;100591.06;;;18.63;100.00
15272;BME280;7737;51.578;7.268;2023-07-16T05:34:02;100588.22;;;18.64;100.00
15272;BME280;7737;51.578;7.268;2023-07-16T05:36:29;100596.75;;;18.69;100.00
15272;BME280;7737;51.578;7.268;2023-07-16T05:38:55;100592.84;;;18.73;100.00
15272;BME280;7737;51.578;7.268;2023-07-16T05:41:22;100592.31;;;18.79;100.00
15272;BME280;7737;51.578;7.268;2023-07-16T05:43:48;100597.31;;;18.84;100.00
15272;BME280;7737;51.578;7.268;2023-07-16T05:46:16;100595.59;;;18.83;100.00
15272;BME280;7737;51.578;7.268;2023-07-16T05:48:43;100602.88;;;18.92;100.00
15272;BME280;7737;51.578;7.268;2023-07-16T05:51:09;100603.81;;;19.02;100.00
15272;BME280;7737;51.578;7.268;2023-07-16T05:53:36;100592.63;;;18.86;100.00
15272;BME280;7737;51.578;7.268;2023-07-16T05:56:03;100598.69;;;18.99;100.00
15272;BME280;7737;51.578;7.268;2023-07-16T05:58:29;100615.44;;;19.03;100.00
15272;BME280;7737;51.578;7.268;2023-07-16T06:00:56;100602.69;;;19.05;100.00
15272;BME280;7737;51.578;7.268;2023-07-16T06:03:24;100596.44;;;19.04;100.00
15272;BME280;7737;51.578;7.268;2023-07-16T06:05:50;100585.38;;;19.07;100.00
15272;BME280;7737;51.578;7.268;2023-07-16T06:08:17;100607.59;;;19.20;100.00
15272;BME280;7737;51.578;7.268;2023-07-16T06:10:43;100599.56;;;19.09;100.00
15272;BME280;7737;51.578;7.268;2023-07-16T06:13:10;100591.13;;;19.14;100.00
15272;BME280;7737;51.578;7.268;2023-07-16T06:15:37;100607.28;;;19.14;100.00
15272;BME280;7737;51.578;7.268;2023-07-16T06:18:03;100595.94;;;19.20;100.00
15272;BME280;7737;51.578;7.268;2023-07-16T06:20:31;100597.25;;;19.25;100.00
15272;BME280;7737;51.578;7.268;2023-07-16T06:22:58;100594.13;;;19.20;100.00
15272;BME280;7737;51.578;7.268;2023-07-16T06:25:24;100595.44;;;19.26;100.00
15272;BME280;7737;51.578;7.268;2023-07-16T06:27:51;100594.44;;;19.48;100.00
15272;BME280;7737;51.578;7.268;2023-07-16T06:30:17;100590.94;;;19.36;100.00
15272;BME280;7737;51.578;7.268;2023-07-16T06:32:44;100592.03;;;19.54;100.00
15272;BME280;7737;51.578;7.268;2023-07-16T06:35:10;100598.03;;;19.37;100.00
15272;BME280;7737;51.578;7.268;2023-07-16T06:37:38;100590.34;;;19.53;100.00
15272;BME280;7737;51.578;7.268;2023-07-16T06:40:06;100595.22;;;19.69;100.00
15272;BME280;7737;51.578;7.268;2023-07-16T06:42:33;100589.94;;;19.67;100.00
15272;BME280;7737;51.578;7.268;2023-07-16T06:45:00;100589.81;;;19.69;100.00
15272;BME280;7737;51.578;7.268;2023-07-16T06:47:26;100601.19;;;19.72;100.00
15272;BME280;7737;51.578;7.268;2023-07-16T06:49:53;100585.97;;;19.62;100.00
15272;BME280;7737;51.578;7.268;2023-07-16T06:52:20;100592.47;;;19.59;100.00
15272;BME280;7737;51.578;7.268;2023-07-16T06:54:48;100602.53;;;19.57;100.00
15272;BME280;7737;51.578;7.268;2023-07-16T06:57:14;100593.66;;;19.66;100.00
15272;BME280;7737;51.578;7.268;2023-07-16T06:59:41;100609.91;;;19.46;100.00
15272;BME280;7737;51.578;7.268;2023-07-16T07:02:08;100601.31;;;19.61;100.00
15272;BME280;7737;51.578;7.268;2023-07-16T07:04:34;100591.38;;;19.71;100.00
15272;BME280;7737;51.578;7.268;2023-07-16T07:07:01;100592.25;;;19.81;100.00
15272;BME280;7737;51.578;7.268;2023-07-16T07:09:27;100593.84;;;19.84;100.00
15272;BME280;7737;51.578;7.268;2023-07-16T07:11:55;100601.63;;;19.77;100.00
15272;BME280;7737;51.578;7.268;2023-07-16T07:14:22;100584.88;;;19.74;100.00
15272;BME280;7737;51.578;7.268;2023-07-16T07:16:48;100589.88;;;19.88;100.00
15272;BME280;7737;51.578;7.268;2023-07-16T07:19:15;100584.50;;;19.97;100.00
15272;BME280;7737;51.578;7.268;2023-07-16T07:21:42;100586.38;;;20.07;100.00
15272;BME280;7737;51.578;7.268;2023-07-16T07:24:08;100578.66;;;19.92;100.00
15272;BME280;7737;51.578;7.268;2023-07-16T07:26:35;100591.19;;;20.03;100.00
15272;BME280;7737;51.578;7.268;2023-07-16T07:29:03;100579.13;;;20.17;100.00
15272;BME280;7737;51.578;7.268;2023-07-16T07:31:29;100570.75;;;20.20;100.00
15272;BME280;7737;51.578;7.268;2023-07-16T07:33:56;100564.50;;;20.19;100.00
15272;BME280;7737;51.578;7.268;2023-07-16T07:36:24;100578.88;;;20.29;100.00
15272;BME280;7737;51.578;7.268;2023-07-16T07:38:51;100571.63;;;20.39;100.00
15272;BME280;7737;51.578;7.268;2023-07-16T07:41:17;100572.19;;;20.52;100.00
15272;BME280;7737;51.578;7.268;2023-07-16T07:43:44;100584.28;;;20.58;100.00
15272;BME280;7737;51.578;7.268;2023-07-16T07:46:12;100568.25;;;20.28;99.57
15272;BME280;7737;51.578;7.268;2023-07-16T07:48:38;100573.31;;;20.31;99.54
15272;BME280;7737;51.578;7.268;2023-07-16T07:51:05;100568.50;;;20.53;98.99
15272;BME280;7737;51.578;7.268;2023-07-16T07:53:33;100571.03;;;20.74;98.48
15272;BME280;7737;51.578;7.268;2023-07-16T07:55:59;100543.19;;;20.64;95.00
15272;BME280;7737;51.578;7.268;2023-07-16T07:58:26;100557.94;;;20.79;94.66
15272;BME280;7737;51.578;7.268;2023-07-16T08:00:53;100544.84;;;20.94;93.24
15272;BME280;7737;51.578;7.268;2023-07-16T08:03:21;100536.03;;;20.82;92.14
15272;BME280;7737;51.578;7.268;2023-07-16T08:05:48;100557.09;;;20.88;92.51
15272;BME280;7737;51.578;7.268;2023-07-16T08:08:15;100565.16;;;20.98;93.04
15272;BME280;7737;51.578;7.268;2023-07-16T08:10:42;100549.53;;;20.92;92.18
15272;BME280;7737;51.578;7.268;2023-07-16T08:13:08;100560.50;;;20.90;92.74
15272;BME280;7737;51.578;7.268;2023-07-16T08:15:35;100566.28;;;21.05;92.92
15272;BME280;7737;51.578;7.268;2023-07-16T08:18:02;100564.91;;;20.82;91.82
15272;BME280;7737;51.578;7.268;2023-07-16T08:20:30;100570.19;;;20.83;92.48
15272;BME280;7737;51.578;7.268;2023-07-16T08:22:56;100568.59;;;20.90;92.25
15272;BME280;7737;51.578;7.268;2023-07-16T08:25:23;100573.56;;;21.14;92.92
15272;BME280;7737;51.578;7.268;2023-07-16T08:27:50;100579.69;;;21.06;91.92
15272;BME280;7737;51.578;7.268;2023-07-16T08:30:17;100579.53;;;21.17;92.09
15272;BME280;7737;51.578;7.268;2023-07-16T08:32:44;100585.22;;;20.95;91.52
15272;BME280;7737;51.578;7.268;2023-07-16T08:35:10;100587.75;;;21.26;91.72
15272;BME280;7737;51.578;7.268;2023-07-16T08:37:43;100573.59;;;21.41;89.24
15272;BME280;7737;51.578;7.268;2023-07-16T08:40:10;100557.91;;;21.45;87.77
15272;BME280;7737;51.578;7.268;2023-07-16T08:42:37;100571.13;;;21.48;87.44
15272;BME280;7737;51.578;7.268;2023-07-16T08:45:06;100566.75;;;21.47;86.51
15272;BME280;7737;51.578;7.268;2023-07-16T08:47:34;100570.81;;;21.60;86.69
15272;BME280;7737;51.578;7.268;2023-07-16T08:50:01;100566.13;;;21.26;84.46
15272;BME280;7737;51.578;7.268;2023-07-16T08:52:29;100570.03;;;21.41;85.48
15272;BME280;7737;51.578;7.268;2023-07-16T08:54:57;100572.84;;;21.49;85.48
15272;BME280;7737;51.578;7.268;2023-07-16T08:57:23;100576.31;;;21.32;84.86
15272;BME280;7737;51.578;7.268;2023-07-16T08:59:51;100570.34;;;21.38;83.80
15272;BME280;7737;51.578;7.268;2023-07-16T09:02:18;100574.34;;;21.61;84.33
15272;BME280;7737;51.578;7.268;2023-07-16T09:04:46;100561.38;;;21.64;82.74
15272;BME280;7737;51.578;7.268;2023-07-16T09:07:13;100555.59;;;21.77;81.31
15272;BME280;7737;51.578;7.268;2023-07-16T09:09:40;100563.63;;;21.69;81.82
15272;BME280;7737;51.578;7.268;2023-07-16T09:12:11;100560.22;;;21.67;81.57
15272;BME280;7737;51.578;7.268;2023-07-16T09:14:37;100564.66;;;21.68;81.35
15272;BME280;7737;51.578;7.268;2023-07-16T09:17:04;100574.66;;;21.85;81.65
15272;BME280;7737;51.578;7.268;2023-07-16T09:19:32;100561.03;;;21.77;80.59
15272;BME280;7737;51.578;7.268;2023-07-16T09:21:58;100575.06;;;21.63;80.61
15272;BME280;7737;51.578;7.268;2023-07-16T09:24:25;100569.97;;;21.87;81.01
15272;BME280;7737;51.578;7.268;2023-07-16T09:26:53;100555.53;;;21.96;80.09
15272;BME280;7737;51.578;7.268;2023-07-16T09:29:22;100560.44;;;22.10;79.68
15272;BME280;7737;51.578;7.268;2023-07-16T09:31:53;100565.16;;;22.26;78.86
15272;BME280;7737;51.578;7.268;2023-07-16T09:34:20;100564.66;;;22.48;77.89
15272;BME280;7737;51.578;7.268;2023-07-16T09:36:47;100539.22;;;22.41;76.04
15272;BME280;7737;51.578;7.268;2023-07-16T09:39:16;100564.75;;;22.56;76.62
15272;BME280;7737;51.578;7.268;2023-07-16T09:41:43;100539.53;;;22.56;74.90
15272;BME280;7737;51.578;7.268;2023-07-16T09:44:11;100533.78;;;22.41;73.49
15272;BME280;7737;51.578;7.268;2023-07-16T09:46:39;100539.34;;;22.57;74.25
15272;BME280;7737;51.578;7.268;2023-07-16T09:49:06;100534.63;;;22.77;73.37
15272;BME280;7737;51.578;7.268;2023-07-16T09:51:35;100522.34;;;23.16;72.32
15272;BME280;7737;51.578;7.268;2023-07-16T09:54:02;100529.66;;;22.90;72.06
15272;BME280;7737;51.578;7.268;2023-07-16T09:56:34;100529.66;;;22.90;71.92
15272;BME280;7737;51.578;7.268;2023-07-16T09:59:02;100529.28;;;22.93;71.53
15272;BME280;7737;51.578;7.268;2023-07-16T10:01:31;100543.28;;;23.06;72.20
15272;BME280;7737;51.578;7.268;2023-07-16T10:04:10;100537.16;;;23.04;71.17
15272;BME280;7737;51.578;7.268;2023-07-16T10:06:48;100530.31;;;23.51;71.10
15272;BME280;7737;51.578;7.268;2023-07-16T10:09:31;100526.31;;;23.04;70.13
15272;BME280;7737;51.578;7.268;2023-07-16T10:12:16;100510.78;;;23.14;69.60
15272;BME280;7737;51.578;7.268;2023-07-16T10:14:44;100538.25;;;23.11;70.34
15272;BME280;7737;51.578;7.268;2023-07-16T10:17:14;100533.28;;;23.07;70.52
15272;BME280;7737;51.578;7.268;2023-07-16T10:19:55;100543.28;;;23.66;71.58
15272;BME280;7737;51.578;7.268;2023-07-16T10:22:37;100541.50;;;23.48;70.46
15272;BME280;7737;51.578;7.268;2023-07-16T10:25:09;100545.34;;;23.12;70.52
15272;BME280;7737;51.578;7.268;2023-07-16T10:27:35;100548.09;;;23.46;69.87
15272;BME280;7737;51.578;7.268;2023-07-16T10:30:04;100538.56;;;23.76;69.25
15272;BME280;7737;51.578;7.268;2023-07-16T10:32:32;100531.09;;;23.78;68.52
15272;BME280;7737;51.578;7.268;2023-07-16T10:35:00;100513.19;;;24.01;67.66
15272;BME280;7737;51.578;7.268;2023-07-16T10:37:28;100529.03;;;23.63;67.17
15272;BME280;7737;51.578;7.268;2023-07-16T10:39:57;100535.06;;;23.99;67.31
15272;BME280;7737;51.578;7.268;2023-07-16T10:42:25;100532.13;;;23.77;66.94
15272;BME280;7737;51.578;7.268;2023-07-16T10:44:54;100543.00;;;23.85;67.02
15272;BME280;7737;51.578;7.268;2023-07-16T10:47:23;100535.69;;;24.43;66.36
15272;BME280;7737;51.578;7.268;2023-07-16T10:49:50;100520.63;;;24.07;64.46
15272;BME280;7737;51.578;7.268;2023-07-16T10:52:21;100523.75;;;24.20;65.18
15272;BME280;7737;51.578;7.268;2023-07-16T10:54:48;100524.78;;;24.11;65.27
15272;BME280;7737;51.578;7.268;2023-07-16T10:57:15;100541.44;;;24.32;65.58
15272;BME280;7737;51.578;7.268;2023-07-16T10:59:42;100515.25;;;24.23;64.27
15272;BME280;7737;51.578;7.268;2023-07-16T11:02:11;100523.28;;;24.41;63.87
15272;BME280;7737;51.578;7.268;2023-07-16T11:04:39;100520.47;;;24.00;64.55
15272;BME280;7737;51.578;7.268;2023-07-16T11:07:07;100535.00;;;23.83;64.59
15272;BME280;7737;51.578;7.268;2023-07-16T11:09:40;100545.97;;;23.57;64.87
15272;BME280;7737;51.578;7.268;2023-07-16T11:12:08;100542.06;;;24.10;63.76
15272;BME280;7737;51.578;7.268;2023-07-16T11:14:34;100557.06;;;23.80;64.63
15272;BME280;7737;51.578;7.268;2023-07-16T11:17:05;100560.69;;;23.47;64.63
15272;BME280;7737;51.578;7.268;2023-07-16T11:19:33;100574.28;;;23.29;64.79
15272;BME280;7737;51.578;7.268;2023-07-16T11:22:00;100574.81;;;23.58;65.21
15272;BME280;7737;51.578;7.268;2023-07-16T11:24:27;100581.09;;;23.67;65.81
15272;BME280;7737;51.578;7.268;2023-07-16T11:26:55;100580.31;;;23.75;65.78
15272;BME280;7737;51.578;7.268;2023-07-16T11:29:23;100589.09;;;23.69;65.78
15272;BME280;7737;51.578;7.268;2023-07-16T11:31:50;100590.50;;;23.81;66.07
15272;BME280;7737;51.578;7.268;2023-07-16T11:34:17;100607.16;;;23.86;66.57
15272;BME280;7737;51.578;7.268;2023-07-16T11:36:45;100592.16;;;23.66;66.16
15272;BME280;7737;51.578;7.268;2023-07-16T11:39:12;100593.09;;;23.56;65.75
15272;BME280;7737;51.578;7.268;2023-07-16T11:41:39;100610.00;;;23.42;65.96
15272;BME280;7737;51.578;7.268;2023-07-16T11:44:08;100611.00;;;23.41;65.88
15272;BME280;7737;51.578;7.268;2023-07-16T11:46:35;100610.09;;;23.58;66.02
15272;BME280;7737;51.578;7.268;2023-07-16T11:49:02;100610.16;;;23.41;66.20
15272;BME280;7737;51.578;7.268;2023-07-16T11:51:29;100620.00;;;23.76;67.28
15272;BME280;7737;51.578;7.268;2023-07-16T11:53:56;100625.09;;;23.71;66.95
15272;BME280;7737;51.578;7.268;2023-07-16T11:56:23;100601.56;;;23.87;65.39
15272;BME280;7737;51.578;7.268;2023-07-16T11:58:50;100607.88;;;23.88;65.17
15272;BME280;7737;51.578;7.268;2023-07-16T12:01:18;100614.25;;;23.79;65.13
15272;BME280;7737;51.578;7.268;2023-07-16T12:03:44;100614.13;;;23.88;65.95
15272;BME280;7737;51.578;7.268;2023-07-16T12:06:11;100610.41;;;23.89;65.36
15272;BME280;7737;51.578;7.268;2023-07-16T12:08:37;100602.09;;;23.99;65.12
15272;BME280;7737;51.578;7.268;2023-07-16T12:11:04;100604.44;;;23.86;64.38
15272;BME280;7737;51.578;7.268;2023-07-16T12:13:31;100601.91;;;23.84;64.54
15272;BME280;7737;51.578;7.268;2023-07-16T12:15:57;100603.59;;;23.85;64.73
15272;BME280;7737;51.578;7.268;2023-07-16T12:18:26;100592.41;;;23.88;64.34
15272;BME280;7737;51.578;7.268;2023-07-16T12:20:53;100594.72;;;24.09;64.04
15272;BME280;7737;51.578;7.268;2023-07-16T12:23:19;100596.19;;;24.03;64.20
15272;BME280;7737;51.578;7.268;2023-07-16T12:25:46;100596.88;;;24.05;64.49
15272;BME280;7737;51.578;7.268;2023-07-16T12:28:13;100611.44;;;23.96;64.69
15272;BME280;7737;51.578;7.268;2023-07-16T12:30:40;100600.31;;;24.15;64.89
15272;BME280;7737;51.578;7.268;2023-07-16T12:33:07;100604.91;;;24.15;63.72
15272;BME280;7737;51.578;7.268;2023-07-16T12:35:34;100605.03;;;24.05;63.97
15272;BME280;7737;51.578;7.268;2023-07-16T12:38:01;100598.69;;;23.89;63.62
15272;BME280;7737;51.578;7.268;2023-07-16T12:40:29;100615.63;;;24.16;64.53
15272;BME280;7737;51.578;7.268;2023-07-16T12:42:56;100624.16;;;24.30;64.29
15272;BME280;7737;51.578;7.268;2023-07-16T12:45:23;100597.44;;;23.75;63.42
15272;BME280;7737;51.578;7.268;2023-07-16T12:47:49;100608.03;;;23.94;63.60
15272;BME280;7737;51.578;7.268;2023-07-16T12:50:16;100610.31;;;23.73;63.41
15272;BME280;7737;51.578;7.268;2023-07-16T12:52:44;100615.91;;;24.05;63.40
15272;BME280;7737;51.578;7.268;2023-07-16T12:55:11;100618.75;;;23.96;63.32
15272;BME280;7737;51.578;7.268;2023-07-16T12:57:38;100620.13;;;24.08;64.05